createdAt,value
2023-05-14T00:01:44.605Z,8.38
2023-05-14T00:04:12.583Z,12.80
2023-05-14T00:06:41.963Z,9.32
2023-05-14T00:09:09.864Z,15.55
2023-05-14T00:11:37.848Z,13.85
2023-05-14T00:14:06.023Z,11.38
2023-05-14T00:16:33.954Z,15.30
2023-05-14T00:19:01.991Z,7.90
2023-05-14T00:21:29.826Z,11.73
2023-05-14T00:23:59.089Z,9.77
2023-05-14T00:26:27.093Z,7.75
2023-05-14T00:28:54.941Z,6.07
2023-05-14T00:31:22.758Z,8.23
2023-05-14T00:33:50.771Z,10.37
2023-05-14T00:36:18.600Z,7.50
2023-05-14T00:38:46.444Z,11.03
2023-05-14T00:41:15.875Z,14.27
2023-05-14T00:43:43.734Z,9.57
2023-05-14T00:46:12.515Z,7.13
2023-05-14T00:48:40.495Z,7.13
2023-05-14T00:51:09.603Z,9.40
2023-05-14T00:53:37.979Z,8.90
2023-05-14T00:56:07.058Z,14.87
2023-05-14T00:58:36.282Z,8.83
2023-05-14T01:01:04.325Z,9.23
2023-05-14T01:03:35.596Z,11.13
2023-05-14T01:06:11.128Z,8.30
2023-05-14T01:08:50.963Z,8.90
2023-05-14T01:11:21.544Z,12.30
2023-05-14T01:14:00.459Z,9.40
2023-05-14T01:16:30.514Z,13.00
2023-05-14T01:19:01.115Z,12.13
2023-05-14T01:21:40.490Z,10.53
2023-05-14T01:24:09.285Z,13.30
2023-05-14T01:26:37.646Z,11.57
2023-05-14T01:29:14.969Z,11.03
2023-05-14T01:31:45.379Z,12.60
2023-05-14T01:34:15.383Z,10.73
2023-05-14T01:36:45.436Z,12.47
2023-05-14T01:39:15.254Z,11.30
2023-05-14T01:41:43.785Z,10.87
2023-05-14T01:44:12.249Z,8.17
2023-05-14T01:46:40.269Z,12.67
2023-05-14T01:49:08.209Z,10.33
2023-05-14T01:51:36.168Z,7.87
2023-05-14T01:54:05.651Z,9.43
2023-05-14T01:56:33.849Z,15.37
2023-05-14T01:59:03.162Z,12.00
2023-05-14T02:01:31.753Z,9.83
2023-05-14T02:04:00.110Z,12.03
2023-05-14T02:06:28.360Z,10.87
2023-05-14T02:08:56.186Z,10.73
2023-05-14T02:11:26.356Z,8.10
2023-05-14T02:13:54.188Z,10.53
2023-05-14T02:16:22.070Z,12.53
2023-05-14T02:18:50.065Z,8.73
2023-05-14T02:21:17.944Z,6.83
2023-05-14T02:23:45.791Z,7.90
2023-05-14T02:26:13.698Z,9.97
2023-05-14T02:28:42.922Z,10.70
2023-05-14T02:31:10.790Z,8.80
2023-05-14T02:33:38.941Z,8.87
2023-05-14T02:36:07.180Z,9.77
2023-05-14T02:38:35.016Z,10.30
2023-05-14T02:41:02.975Z,10.43
2023-05-14T02:43:30.816Z,14.40
2023-05-14T02:46:00.034Z,11.43
2023-05-14T02:48:28.035Z,9.10
2023-05-14T02:50:55.877Z,11.57
2023-05-14T02:53:23.728Z,9.57
2023-05-14T02:55:51.968Z,10.40
2023-05-14T02:58:19.813Z,13.47
2023-05-14T03:00:54.208Z,12.17
2023-05-14T03:03:23.915Z,12.47
2023-05-14T03:05:52.154Z,9.13
2023-05-14T03:08:20.092Z,12.50
2023-05-14T03:10:47.909Z,10.00
2023-05-14T03:13:20.844Z,13.30
2023-05-14T03:15:48.995Z,11.23
2023-05-14T03:18:16.867Z,8.37
2023-05-14T03:20:46.102Z,10.10
2023-05-14T03:23:14.956Z,9.43
2023-05-14T03:25:42.820Z,9.30
2023-05-14T03:28:13.070Z,12.00
2023-05-14T03:30:41.027Z,16.03
2023-05-14T03:33:08.925Z,14.70
2023-05-14T03:35:36.765Z,10.37
2023-05-14T03:38:06.155Z,9.30
2023-05-14T03:40:34.015Z,8.10
2023-05-14T03:43:01.845Z,9.30
2023-05-14T03:45:30.504Z,13.20
2023-05-14T03:47:58.439Z,10.53
2023-05-14T03:50:26.463Z,12.77
2023-05-14T03:52:55.085Z,7.80
2023-05-14T03:55:24.502Z,11.23
2023-05-14T03:57:52.462Z,15.03
2023-05-14T04:00:21.386Z,8.73
2023-05-14T04:02:49.700Z,11.43
2023-05-14T04:05:17.784Z,8.93
2023-05-14T04:07:46.241Z,10.53
2023-05-14T04:10:14.686Z,9.27
2023-05-14T04:12:43.895Z,10.45
2023-05-14T04:15:12.556Z,8.52
2023-05-14T04:17:40.465Z,10.30
2023-05-14T04:20:09.751Z,8.18
2023-05-14T04:22:37.680Z,10.45
2023-05-14T04:25:06.219Z,9.65
2023-05-14T04:27:34.655Z,8.23
2023-05-14T04:30:04.541Z,10.27
2023-05-14T04:32:32.384Z,10.43
2023-05-14T04:35:00.271Z,9.52
2023-05-14T04:37:28.184Z,9.65
2023-05-14T04:39:56.287Z,9.90
2023-05-14T04:42:24.185Z,12.27
2023-05-14T04:44:52.326Z,6.85
2023-05-14T04:47:22.305Z,9.90
2023-05-14T04:49:50.214Z,7.53
2023-05-14T04:52:18.130Z,9.68
2023-05-14T04:54:46.198Z,9.52
2023-05-14T04:57:14.341Z,9.10
2023-05-14T04:59:42.241Z,6.18
2023-05-14T05:02:10.315Z,6.40
2023-05-14T05:04:39.833Z,7.45
2023-05-14T05:07:07.727Z,7.93
2023-05-14T05:09:35.753Z,6.97
2023-05-14T05:12:03.587Z,9.20
2023-05-14T05:14:31.419Z,8.18
2023-05-14T05:16:59.637Z,7.28
2023-05-14T05:19:39.555Z,9.95
2023-05-14T05:22:12.987Z,9.75
2023-05-14T05:24:40.862Z,6.90
2023-05-14T05:27:08.892Z,8.07
2023-05-14T05:29:36.879Z,10.00
2023-05-14T05:32:05.168Z,8.25
2023-05-14T05:34:33.129Z,8.18
2023-05-14T05:37:01.018Z,7.03
2023-05-14T05:39:35.299Z,11.88
2023-05-14T05:42:03.985Z,5.53
2023-05-14T05:44:32.145Z,11.02
2023-05-14T05:47:00.199Z,8.60
2023-05-14T05:49:28.279Z,5.68
2023-05-14T05:51:56.131Z,7.35
2023-05-14T05:54:29.208Z,6.38
2023-05-14T05:56:58.511Z,12.48
2023-05-14T05:59:26.353Z,6.03
2023-05-14T06:01:56.591Z,7.68
2023-05-14T06:04:24.612Z,8.68
2023-05-14T06:06:52.634Z,9.20
2023-05-14T06:09:20.901Z,7.53
2023-05-14T06:11:51.650Z,9.43
2023-05-14T06:14:21.086Z,6.47
2023-05-14T06:16:49.020Z,6.32
2023-05-14T06:19:17.169Z,10.18
2023-05-14T06:21:45.295Z,7.38
2023-05-14T06:24:13.376Z,10.20
2023-05-14T06:26:41.402Z,8.85
2023-05-14T06:29:09.537Z,7.60
2023-05-14T06:31:38.815Z,6.63
2023-05-14T06:34:08.921Z,6.60
2023-05-14T06:36:37.049Z,11.43
2023-05-14T06:39:05.234Z,8.25
2023-05-14T06:41:33.208Z,8.35
2023-05-14T06:44:01.018Z,6.88
2023-05-14T06:46:28.846Z,6.50
2023-05-14T06:48:59.547Z,8.40
2023-05-14T06:51:27.782Z,7.32
2023-05-14T06:53:56.134Z,12.82
2023-05-14T06:56:24.231Z,7.93
2023-05-14T06:58:52.062Z,6.13
2023-05-14T07:01:19.955Z,3.97
2023-05-14T07:03:47.953Z,8.85
2023-05-14T07:06:18.585Z,4.10
2023-05-14T07:08:47.698Z,7.03
2023-05-14T07:11:17.316Z,10.25
2023-05-14T07:13:48.120Z,9.18
2023-05-14T07:16:16.099Z,12.95
2023-05-14T07:18:53.175Z,9.77
2023-05-14T07:21:22.484Z,6.18
2023-05-14T07:23:51.386Z,5.88
2023-05-14T07:26:21.608Z,7.93
2023-05-14T07:28:49.748Z,7.68
2023-05-14T07:31:17.917Z,7.97
2023-05-14T07:33:46.104Z,7.25
2023-05-14T07:36:14.268Z,6.93
2023-05-14T07:38:43.547Z,5.57
2023-05-14T07:41:12.273Z,6.50
2023-05-14T07:43:40.578Z,7.53
2023-05-14T07:46:08.488Z,10.00
2023-05-14T07:48:36.414Z,5.25
2023-05-14T07:51:04.410Z,8.45
2023-05-14T07:53:32.287Z,6.50
2023-05-14T07:56:01.523Z,10.25
2023-05-14T07:58:30.263Z,5.18
2023-05-14T08:00:58.093Z,3.58
2023-05-14T08:03:25.978Z,6.72
2023-05-14T08:05:54.000Z,6.35
2023-05-14T08:08:21.829Z,8.50
2023-05-14T08:10:49.746Z,9.10
2023-05-14T08:13:18.985Z,6.03
2023-05-14T08:15:48.155Z,6.25
2023-05-14T08:18:16.214Z,6.95
2023-05-14T08:20:44.037Z,5.32
2023-05-14T08:23:11.910Z,2.60
2023-05-14T08:25:39.864Z,6.18
2023-05-14T08:28:08.896Z,6.75
2023-05-14T08:30:38.295Z,4.75
2023-05-14T08:33:06.352Z,7.00
2023-05-14T08:35:34.369Z,8.40
2023-05-14T08:38:02.330Z,6.03
2023-05-14T08:40:30.487Z,6.90
2023-05-14T08:42:58.585Z,7.30
2023-05-14T08:45:34.193Z,4.25
2023-05-14T08:48:09.394Z,3.55
2023-05-14T08:50:37.662Z,4.47
2023-05-14T08:53:05.611Z,4.45
2023-05-14T08:55:34.213Z,6.00
2023-05-14T08:58:02.499Z,5.70
2023-05-14T09:00:30.900Z,5.18
2023-05-14T09:03:00.220Z,6.55
2023-05-14T09:05:29.592Z,7.68
2023-05-14T09:07:57.681Z,5.45
2023-05-14T09:10:26.309Z,4.90
2023-05-14T09:12:54.578Z,3.28
2023-05-14T09:15:22.382Z,5.20
2023-05-14T09:17:50.449Z,5.97
2023-05-14T09:20:18.504Z,4.53
2023-05-14T09:22:47.783Z,6.32
2023-05-14T09:25:15.614Z,5.32
2023-05-14T09:27:43.511Z,3.20
2023-05-14T09:30:12.993Z,4.57
2023-05-14T09:32:44.060Z,4.82
2023-05-14T09:35:15.021Z,2.95
2023-05-14T09:37:46.383Z,5.78
2023-05-14T09:40:18.978Z,5.20
2023-05-14T09:42:48.229Z,3.55
2023-05-14T09:45:17.114Z,4.65
2023-05-14T09:47:46.098Z,3.88
2023-05-14T09:50:14.395Z,6.43
2023-05-14T09:52:43.703Z,4.22
2023-05-14T09:55:15.711Z,3.92
2023-05-14T09:57:45.302Z,4.43
2023-05-14T10:00:15.813Z,6.95
2023-05-14T10:02:46.983Z,6.40
2023-05-14T10:05:16.793Z,4.82
2023-05-14T10:07:50.668Z,5.50
2023-05-14T10:10:21.673Z,5.88
2023-05-14T10:12:56.186Z,6.18
2023-05-14T10:15:31.494Z,5.32
2023-05-14T10:18:04.678Z,6.03
2023-05-14T10:20:33.324Z,6.07
2023-05-14T10:23:02.131Z,4.38
2023-05-14T10:25:32.091Z,3.55
2023-05-14T10:28:02.112Z,3.25
2023-05-14T10:30:31.387Z,4.55
2023-05-14T10:33:10.379Z,2.03
2023-05-14T10:36:01.730Z,2.17
2023-05-14T10:38:30.452Z,2.17
2023-05-14T10:41:01.077Z,4.03
2023-05-14T10:43:31.851Z,3.58
2023-05-14T10:46:01.695Z,2.53
2023-05-14T10:48:30.067Z,2.78
2023-05-14T10:50:58.833Z,5.30
2023-05-14T10:53:37.995Z,2.22
2023-05-14T10:56:07.546Z,7.45
2023-05-14T10:58:39.202Z,5.60
2023-05-14T11:01:08.528Z,4.40
2023-05-14T11:03:42.150Z,5.22
2023-05-14T11:06:11.302Z,4.75
2023-05-14T11:08:39.832Z,3.45
2023-05-14T11:11:08.172Z,4.63
2023-05-14T11:13:36.550Z,4.65
2023-05-14T11:18:38.897Z,6.43
2023-05-14T11:21:07.075Z,5.07
2023-05-14T11:23:34.974Z,4.60
2023-05-14T11:26:03.265Z,4.65
2023-05-14T11:28:31.362Z,3.88
2023-05-14T11:30:59.219Z,2.78
2023-05-14T11:33:29.223Z,3.67
2023-05-14T11:35:57.200Z,4.45
2023-05-14T11:38:25.502Z,6.85
2023-05-14T11:40:54.388Z,3.50
2023-05-14T11:43:23.747Z,3.17
2023-05-14T11:45:52.690Z,2.58
2023-05-14T11:48:20.952Z,5.18
2023-05-14T11:50:51.524Z,3.45
2023-05-14T11:53:20.382Z,3.65
2023-05-14T11:55:49.913Z,5.35
2023-05-14T11:58:19.519Z,4.43
2023-05-14T12:00:47.655Z,3.85
2023-05-14T12:03:15.828Z,5.32
2023-05-14T12:05:58.145Z,3.80
2023-05-14T12:08:28.545Z,2.63
2023-05-14T12:10:56.994Z,5.38
2023-05-14T12:13:27.712Z,5.38
2023-05-14T12:15:57.093Z,2.95
2023-05-14T12:18:26.450Z,3.97
2023-05-14T12:20:54.454Z,2.95
2023-05-14T12:23:28.012Z,7.07
2023-05-14T12:25:56.021Z,3.70
2023-05-14T12:28:24.745Z,2.70
2023-05-14T12:30:58.287Z,3.53
2023-05-14T12:33:27.360Z,5.97
2023-05-14T12:35:58.913Z,10.23
2023-05-14T12:38:30.065Z,3.50
2023-05-14T12:40:57.869Z,6.32
2023-05-14T12:43:30.003Z,7.50
2023-05-14T12:45:57.978Z,7.05
2023-05-14T12:48:26.177Z,4.32
2023-05-14T12:50:54.045Z,3.88
2023-05-14T12:53:22.063Z,7.40
2023-05-14T12:55:51.479Z,10.43
2023-05-14T12:58:19.351Z,11.85
2023-05-14T13:00:47.379Z,3.10
2023-05-14T13:03:15.333Z,4.15
2023-05-14T13:05:43.256Z,6.78
2023-05-14T13:08:11.367Z,5.53
2023-05-14T13:10:39.194Z,4.25
2023-05-14T13:13:08.475Z,4.15
2023-05-14T13:15:37.441Z,3.35
2023-05-14T13:18:05.855Z,3.38
2023-05-14T13:20:34.537Z,7.88
2023-05-14T13:23:03.089Z,4.25
2023-05-14T13:25:30.981Z,3.85
2023-05-14T13:27:58.840Z,3.67
2023-05-14T13:30:28.734Z,3.67
2023-05-14T13:32:56.601Z,3.10
2023-05-14T13:35:24.774Z,3.90
2023-05-14T13:37:53.320Z,2.95
2023-05-14T13:40:21.328Z,6.15
2023-05-14T13:42:50.660Z,4.80
2023-05-14T13:45:18.694Z,4.07
2023-05-14T13:47:49.411Z,6.32
2023-05-14T13:50:17.537Z,8.85
2023-05-14T13:52:45.549Z,4.95
2023-05-14T13:55:13.530Z,7.15
2023-05-14T13:57:43.085Z,4.38
2023-05-14T14:00:11.809Z,4.72
2023-05-14T14:02:39.822Z,3.72
2023-05-14T14:05:10.446Z,3.72
2023-05-14T14:07:38.954Z,4.80
2023-05-14T14:10:08.156Z,5.82
2023-05-14T14:12:36.816Z,3.85
2023-05-14T14:15:05.300Z,4.45
2023-05-14T14:17:34.256Z,7.00
2023-05-14T14:20:02.291Z,4.25
2023-05-14T14:22:31.881Z,4.70
2023-05-14T14:24:59.774Z,4.45
2023-05-14T14:27:27.802Z,3.03
2023-05-14T14:29:56.885Z,3.45
2023-05-14T14:32:25.014Z,2.40
2023-05-14T14:34:53.160Z,3.63
2023-05-14T14:37:23.017Z,5.55
2023-05-14T14:39:52.441Z,4.10
2023-05-14T14:42:20.476Z,4.45
2023-05-14T14:44:48.401Z,6.20
2023-05-14T14:47:18.610Z,4.65
2023-05-14T14:49:46.651Z,8.18
2023-05-14T14:52:15.643Z,5.85
2023-05-14T14:54:43.676Z,7.45
2023-05-14T14:57:13.311Z,4.65
2023-05-14T14:59:41.433Z,5.10
2023-05-14T15:02:11.002Z,8.15
2023-05-14T15:04:39.178Z,2.90
2023-05-14T15:07:07.400Z,3.85
2023-05-14T15:09:35.362Z,2.58
2023-05-14T15:12:03.530Z,3.92
2023-05-14T15:14:33.552Z,4.65
2023-05-14T15:17:01.924Z,4.32
2023-05-14T15:19:31.138Z,7.32
2023-05-14T15:21:59.254Z,3.35
2023-05-14T15:24:27.410Z,3.80
2023-05-14T15:26:55.833Z,2.67
2023-05-14T15:29:23.852Z,4.70
2023-05-14T15:31:53.390Z,2.53
2023-05-14T15:34:23.718Z,6.03
2023-05-14T15:36:52.204Z,2.88
2023-05-14T15:39:21.609Z,8.07
2023-05-14T15:41:49.707Z,4.70
2023-05-14T15:44:17.850Z,2.65
2023-05-14T15:46:45.964Z,5.32
2023-05-14T15:49:15.544Z,4.72
2023-05-14T15:51:43.533Z,4.72
2023-05-14T15:54:14.603Z,2.60
2023-05-14T15:56:42.593Z,2.75
2023-05-14T15:59:10.488Z,5.20
2023-05-14T16:01:38.431Z,5.10
2023-05-14T16:04:06.488Z,6.40
2023-05-14T16:06:36.357Z,5.43
2023-05-14T16:09:05.225Z,2.97
2023-05-14T16:11:33.139Z,4.63
2023-05-14T16:14:01.067Z,4.95
2023-05-14T16:16:29.053Z,5.68
2023-05-14T16:18:57.217Z,5.40
2023-05-14T16:21:25.269Z,2.42
2023-05-14T16:23:54.514Z,2.58
2023-05-14T16:26:22.869Z,4.53
2023-05-14T16:28:50.745Z,3.35
2023-05-14T16:31:18.886Z,3.55
2023-05-14T16:33:46.859Z,6.28
2023-05-14T16:36:14.709Z,3.90
2023-05-14T16:39:05.405Z,6.70
2023-05-14T16:41:32.181Z,7.40
2023-05-14T16:44:00.029Z,7.03
2023-05-14T16:46:29.389Z,4.10
2023-05-14T16:48:57.723Z,4.30
2023-05-14T16:51:25.696Z,3.63
2023-05-14T16:53:55.502Z,5.60
2023-05-14T16:56:23.917Z,4.05
2023-05-14T16:58:53.161Z,4.75
2023-05-14T17:01:21.068Z,4.10
2023-05-14T17:03:49.084Z,5.18
2023-05-14T17:06:17.090Z,5.28
2023-05-14T17:08:44.966Z,3.90
2023-05-14T17:11:12.946Z,3.53
2023-05-14T17:13:40.853Z,6.75
2023-05-14T17:16:10.192Z,4.40
2023-05-14T17:18:38.355Z,4.15
2023-05-14T17:21:07.563Z,3.97
2023-05-14T17:23:35.656Z,3.65
2023-05-14T17:26:03.901Z,5.63
2023-05-14T17:28:32.051Z,4.78
2023-05-14T17:30:59.927Z,3.72
2023-05-14T17:33:29.624Z,2.22
2023-05-14T17:35:57.621Z,4.13
2023-05-14T17:38:25.862Z,3.20
2023-05-14T17:40:54.360Z,4.13
2023-05-14T17:43:22.292Z,4.22
2023-05-14T17:45:54.457Z,7.45
2023-05-14T17:48:23.065Z,4.13
2023-05-14T17:50:52.457Z,6.15
2023-05-14T17:53:20.471Z,6.55
2023-05-14T17:55:48.499Z,3.28
2023-05-14T17:58:16.728Z,9.45
2023-05-14T18:00:44.850Z,3.92
2023-05-14T18:03:14.301Z,4.70
2023-05-14T18:05:44.776Z,7.38
2023-05-14T18:08:14.621Z,7.20
2023-05-14T18:10:42.496Z,4.53
2023-05-14T18:13:10.423Z,5.85
2023-05-14T18:15:38.792Z,6.97
2023-05-14T18:18:07.287Z,6.53
2023-05-14T18:20:35.650Z,4.88
2023-05-14T18:23:03.884Z,5.03
2023-05-14T18:25:33.297Z,3.88
2023-05-14T18:28:01.258Z,7.10
2023-05-14T18:30:29.157Z,6.72
2023-05-14T18:32:57.012Z,12.50
2023-05-14T18:35:25.053Z,5.72
2023-05-14T18:37:53.529Z,8.43
2023-05-14T18:40:21.630Z,9.73
2023-05-14T18:42:50.910Z,6.95
2023-05-14T18:45:22.370Z,6.28
2023-05-14T18:47:50.900Z,4.85
2023-05-14T18:50:18.957Z,6.70
2023-05-14T18:52:46.875Z,4.88
2023-05-14T18:55:14.837Z,6.65
2023-05-14T18:57:42.849Z,12.32
2023-05-14T19:00:13.824Z,13.65
2023-05-14T19:02:41.768Z,17.88
2023-05-14T19:05:09.974Z,12.93
2023-05-14T19:07:38.220Z,15.30
2023-05-14T19:10:07.475Z,10.88
2023-05-14T19:12:37.578Z,6.03
2023-05-14T19:15:06.552Z,8.07
2023-05-14T19:17:36.790Z,6.47
2023-05-14T19:20:05.915Z,9.65
2023-05-14T19:22:33.855Z,13.68
2023-05-14T19:25:02.040Z,6.32
2023-05-14T19:27:31.253Z,5.15
2023-05-14T19:29:59.140Z,5.68
2023-05-14T19:32:27.007Z,6.50
2023-05-14T19:34:58.943Z,8.70
2023-05-14T19:37:27.046Z,7.07
2023-05-14T19:39:54.888Z,6.13
2023-05-14T19:42:22.692Z,5.95
2023-05-14T19:44:51.311Z,5.20
2023-05-14T19:47:20.281Z,3.83
2023-05-14T19:49:48.135Z,5.05
2023-05-14T19:52:17.648Z,3.47
2023-05-14T19:54:45.506Z,4.20
2023-05-14T19:57:13.404Z,4.40
2023-05-14T19:59:41.488Z,5.40
2023-05-14T20:02:15.653Z,4.97
2023-05-14T20:04:45.572Z,7.70
2023-05-14T20:07:14.007Z,6.20
2023-05-14T20:09:43.530Z,10.57
2023-05-14T20:12:12.944Z,8.60
2023-05-14T20:14:41.671Z,4.97
2023-05-14T20:17:10.337Z,5.95
2023-05-14T20:19:38.412Z,7.93
2023-05-14T20:22:06.506Z,5.40
2023-05-14T20:24:34.324Z,5.82
2023-05-14T20:27:03.728Z,5.05
2023-05-14T20:29:31.639Z,8.18
2023-05-14T20:31:59.481Z,5.80
2023-05-14T20:34:27.389Z,5.60
2023-05-14T20:36:55.220Z,5.13
2023-05-14T20:39:23.320Z,6.50
2023-05-14T20:41:51.304Z,4.40
2023-05-14T20:44:20.824Z,4.38
2023-05-14T20:46:49.053Z,4.63
2023-05-14T20:49:17.098Z,5.13
2023-05-14T20:51:45.024Z,5.13
2023-05-14T20:54:12.891Z,8.50
2023-05-14T20:56:40.808Z,7.45
2023-05-14T20:59:08.696Z,5.85
2023-05-14T21:01:37.979Z,7.65
2023-05-14T21:04:06.240Z,6.70
2023-05-14T21:06:34.206Z,5.18
2023-05-14T21:09:02.050Z,6.57
2023-05-14T21:11:29.955Z,3.63
2023-05-14T21:13:58.756Z,2.47
2023-05-14T21:16:26.678Z,7.13
2023-05-14T21:18:56.245Z,8.02
2023-05-14T21:21:24.428Z,3.15
2023-05-14T21:23:52.268Z,6.60
2023-05-14T21:26:23.571Z,4.57
2023-05-14T21:28:51.402Z,7.57
2023-05-14T21:31:20.707Z,6.22
2023-05-14T21:33:48.725Z,4.28
2023-05-14T21:36:18.307Z,4.45
2023-05-14T21:38:46.113Z,5.03
2023-05-14T21:41:14.479Z,8.20
2023-05-14T21:43:43.814Z,4.70
2023-05-14T21:46:11.793Z,4.93
2023-05-14T21:48:40.092Z,7.18
2023-05-14T21:51:08.002Z,5.18
2023-05-14T21:53:37.183Z,3.58
2023-05-14T21:56:06.119Z,3.13
2023-05-14T21:58:33.946Z,7.68
2023-05-14T22:01:01.777Z,7.43
2023-05-14T22:03:30.048Z,4.80
2023-05-14T22:05:58.617Z,7.00
2023-05-14T22:08:27.272Z,6.35
2023-05-14T22:10:56.700Z,3.88
2023-05-14T22:13:24.739Z,6.78
2023-05-14T22:16:01.411Z,6.10
2023-05-14T22:18:37.204Z,3.75
2023-05-14T22:21:05.670Z,6.40
2023-05-14T22:23:33.512Z,5.78
2023-05-14T22:26:02.984Z,4.30
2023-05-14T22:28:30.920Z,4.40
2023-05-14T22:30:59.756Z,7.03
2023-05-14T22:33:27.920Z,5.72
2023-05-14T22:35:55.780Z,8.05
2023-05-14T22:38:23.599Z,5.68
2023-05-14T22:40:51.965Z,4.13
2023-05-14T22:43:21.213Z,5.57
2023-05-14T22:45:49.040Z,5.90
2023-05-14T22:48:17.055Z,5.63
2023-05-14T22:50:44.954Z,5.85
2023-05-14T22:53:13.510Z,4.10
2023-05-14T22:55:41.498Z,3.70
2023-05-14T22:58:09.346Z,4.88
2023-05-14T23:00:38.669Z,8.45
2023-05-14T23:03:07.460Z,6.57
2023-05-14T23:05:36.252Z,6.00
2023-05-14T23:08:04.150Z,4.85
2023-05-14T23:10:33.354Z,9.00
2023-05-14T23:13:01.210Z,5.80
2023-05-14T23:15:29.101Z,7.88
2023-05-14T23:17:59.825Z,7.00
2023-05-14T23:20:27.735Z,7.20
2023-05-14T23:22:55.553Z,5.75
2023-05-14T23:25:23.587Z,4.35
2023-05-14T23:27:51.555Z,6.82
2023-05-14T23:30:19.633Z,9.05
2023-05-14T23:32:47.625Z,10.32
2023-05-14T23:35:17.124Z,10.13
2023-05-14T23:37:47.424Z,8.68
2023-05-14T23:40:15.811Z,13.65
2023-05-14T23:42:44.643Z,10.48
2023-05-14T23:45:14.112Z,7.90
2023-05-14T23:47:42.409Z,10.85
2023-05-14T23:50:10.677Z,10.25
2023-05-14T23:52:39.997Z,20.73
2023-05-14T23:55:08.551Z,7.07
2023-05-14T23:57:36.923Z,10.20
